createdAt,value
2018-02-21T00:02:22.390Z,49.55
2018-02-21T00:04:50.729Z,45.80
2018-02-21T00:07:18.236Z,48.28
2018-02-21T00:09:45.824Z,46.97
2018-02-21T00:12:13.360Z,46.83
2018-02-21T00:14:41.643Z,49.03
2018-02-21T00:17:09.926Z,47.85
2018-02-21T00:19:38.214Z,47.22
2018-02-21T00:22:05.719Z,44.95
2018-02-21T00:24:33.282Z,47.62
2018-02-21T00:27:00.855Z,45.08
2018-02-21T00:29:28.414Z,46.58
2018-02-21T00:31:56.692Z,47.53
2018-02-21T00:34:24.235Z,50.40
2018-02-21T00:36:51.757Z,48.65
2018-02-21T00:39:19.290Z,49.72
2018-02-21T00:41:46.892Z,48.55
2018-02-21T00:44:15.198Z,48.17
2018-02-21T00:46:42.719Z,49.72
2018-02-21T00:49:10.227Z,48.33
2018-02-21T00:51:38.618Z,48.08
2018-02-21T00:54:06.891Z,49.25
2018-02-21T00:56:34.415Z,46.67
2018-02-21T00:59:01.947Z,47.97
2018-02-21T01:01:30.261Z,46.00
2018-02-21T01:03:57.772Z,49.92
2018-02-21T01:06:25.292Z,48.53
2018-02-21T01:08:52.854Z,49.03
2018-02-21T01:11:21.147Z,50.42
2018-02-21T01:13:49.419Z,60.28
2018-02-21T01:16:17.710Z,63.15
2018-02-21T01:18:46.013Z,63.97
2018-02-21T01:21:14.323Z,61.15
2018-02-21T01:23:41.877Z,59.60
2018-02-21T01:26:10.145Z,61.22
2018-02-21T01:28:38.438Z,59.83
2018-02-21T01:31:06.726Z,64.40
2018-02-21T01:33:35.008Z,64.20
2018-02-21T01:36:02.522Z,63.45
2018-02-21T01:38:30.070Z,62.30
2018-02-21T01:40:58.361Z,61.55
2018-02-21T01:43:26.646Z,66.95
2018-02-21T01:45:54.921Z,62.72
2018-02-21T01:48:23.208Z,53.67
2018-02-21T01:50:52.619Z,50.95
2018-02-21T01:53:20.148Z,53.80
2018-02-21T01:55:47.658Z,58.67
2018-02-21T01:58:15.177Z,61.08
2018-02-21T02:00:42.779Z,60.47
2018-02-21T02:03:10.327Z,59.45
2018-02-21T02:05:37.840Z,61.30
2018-02-21T02:08:05.440Z,59.90
2018-02-21T02:10:33.838Z,59.25
2018-02-21T02:13:02.106Z,56.50
2018-02-21T02:15:30.402Z,48.72
2018-02-21T02:17:58.675Z,49.78
2018-02-21T02:20:26.281Z,49.67
2018-02-21T02:22:53.803Z,49.65
2018-02-21T02:25:21.325Z,50.53
2018-02-21T02:27:48.833Z,51.37
2018-02-21T02:30:16.365Z,50.15
2018-02-21T02:32:44.649Z,49.95
2018-02-21T02:35:12.938Z,51.00
2018-02-21T02:37:41.214Z,49.45
2018-02-21T02:40:09.513Z,49.28
2018-02-21T02:42:37.787Z,48.63
2018-02-21T02:45:06.081Z,47.55
2018-02-21T02:47:34.359Z,49.05
2018-02-21T02:50:03.399Z,49.70
2018-02-21T02:52:30.906Z,50.33
2018-02-21T02:54:58.452Z,50.30
2018-02-21T02:57:25.987Z,51.17
2018-02-21T02:59:54.275Z,50.08
2018-02-21T03:02:21.802Z,50.35
2018-02-21T03:04:49.306Z,51.30
2018-02-21T03:07:16.829Z,54.35
2018-02-21T03:09:44.333Z,47.97
2018-02-21T03:12:11.864Z,47.62
2018-02-21T03:14:39.379Z,47.67
2018-02-21T03:17:07.014Z,47.25
2018-02-21T03:19:34.566Z,48.40
2018-02-21T03:22:02.868Z,45.90
2018-02-21T03:24:30.380Z,48.55
2018-02-21T03:26:58.008Z,47.42
2018-02-21T03:29:25.579Z,46.88
2018-02-21T03:31:53.142Z,49.65
2018-02-21T03:34:21.432Z,47.10
2018-02-21T03:36:49.701Z,48.58
2018-02-21T03:39:17.290Z,46.80
2018-02-21T03:41:45.581Z,49.38
2018-02-21T03:44:13.877Z,46.40
2018-02-21T03:46:41.395Z,47.25
2018-02-21T03:49:08.928Z,45.85
2018-02-21T03:51:36.487Z,48.58
2018-02-21T03:54:04.789Z,45.25
2018-02-21T03:56:32.297Z,50.15
2018-02-21T03:58:59.832Z,46.03
2018-02-21T04:01:27.394Z,47.58
2018-02-21T04:03:54.938Z,46.83
2018-02-21T04:06:23.219Z,50.22
2018-02-21T04:08:51.489Z,46.37
2018-02-21T04:11:19.017Z,48.35
2018-02-21T04:13:46.530Z,48.00
2018-02-21T04:16:14.155Z,49.08
2018-02-21T04:18:41.679Z,49.08
2018-02-21T04:21:10.016Z,46.67
2018-02-21T04:23:37.589Z,48.75
2018-02-21T04:26:05.125Z,47.95
2018-02-21T04:28:32.637Z,50.60
2018-02-21T04:31:00.205Z,47.92
2018-02-21T04:33:27.780Z,48.87
2018-02-21T04:35:55.314Z,45.20
2018-02-21T04:38:22.838Z,45.90
2018-02-21T04:40:50.378Z,44.20
2018-02-21T04:43:18.658Z,46.65
2018-02-21T04:45:46.975Z,45.95
2018-02-21T04:48:14.489Z,47.85
2018-02-21T04:50:42.022Z,47.53
2018-02-21T04:53:09.541Z,46.60
2018-02-21T04:55:42.677Z,47.70
2018-02-21T05:01:20.651Z,67.25
2018-02-21T05:03:50.025Z,61.58
2018-02-21T05:06:18.342Z,60.53
2018-02-21T05:08:45.866Z,63.05
2018-02-21T05:11:13.413Z,61.22
2018-02-21T05:13:40.929Z,63.35
2018-02-21T05:16:08.446Z,61.05
2018-02-21T05:18:36.327Z,58.70
2018-02-21T05:21:03.862Z,72.25
2018-02-21T05:23:32.148Z,68.12
2018-02-21T05:25:59.653Z,68.40
2018-02-21T05:28:27.205Z,69.37
2018-02-21T05:30:55.486Z,67.60
2018-02-21T05:33:23.794Z,61.28
2018-02-21T05:35:51.330Z,64.62
2018-02-21T05:38:18.857Z,66.22
2018-02-21T05:40:46.365Z,63.00
2018-02-21T05:43:13.972Z,64.37
2018-02-21T05:45:42.250Z,60.28
2018-02-21T05:48:10.565Z,58.95
2018-02-21T05:50:38.083Z,62.95
2018-02-21T05:53:05.644Z,57.67
2018-02-21T05:55:33.150Z,56.22
2018-02-21T05:58:01.431Z,49.67
2018-02-21T06:00:29.738Z,51.15
2018-02-21T06:02:58.026Z,46.63
2018-02-21T06:05:26.405Z,45.47
2018-02-21T06:07:54.002Z,47.25
2018-02-21T06:10:22.287Z,45.20
2018-02-21T06:12:50.558Z,51.05
2018-02-21T06:15:18.861Z,57.08
2018-02-21T06:17:47.133Z,58.22
2018-02-21T06:20:15.429Z,59.58
2018-02-21T06:22:43.697Z,53.53
2018-02-21T06:25:11.329Z,52.97
2018-02-21T06:27:38.848Z,54.72
2018-02-21T06:30:07.174Z,50.58
2018-02-21T06:32:34.742Z,52.10
2018-02-21T06:35:03.062Z,49.45
2018-02-21T06:37:30.573Z,52.10
2018-02-21T06:39:58.109Z,49.88
2018-02-21T06:42:25.617Z,52.33
2018-02-21T06:44:53.137Z,51.78
2018-02-21T06:47:20.666Z,53.70
2018-02-21T06:49:48.454Z,54.75
2018-02-21T06:52:16.745Z,54.10
2018-02-21T06:54:45.026Z,53.08
2018-02-21T06:57:12.650Z,54.90
2018-02-21T06:59:40.202Z,57.13
2018-02-21T07:02:07.749Z,55.55
2018-02-21T07:04:35.262Z,56.83
2018-02-21T07:07:02.818Z,55.42
2018-02-21T07:09:30.377Z,56.75
2018-02-21T07:11:58.673Z,54.38
2018-02-21T07:14:26.202Z,53.75
2018-02-21T07:16:53.729Z,54.33
2018-02-21T07:19:21.237Z,55.13
2018-02-21T07:21:48.749Z,53.83
2018-02-21T07:24:17.142Z,57.43
2018-02-21T07:26:44.733Z,59.73
2018-02-21T07:29:12.295Z,58.97
2018-02-21T07:31:39.827Z,55.60
2018-02-21T07:34:07.431Z,62.20
2018-02-21T07:36:35.006Z,60.13
2018-02-21T07:39:02.582Z,60.57
2018-02-21T07:41:30.154Z,59.83
2018-02-21T07:43:57.675Z,60.93
2018-02-21T07:46:25.186Z,61.20
2018-02-21T07:48:53.477Z,62.87
2018-02-21T07:51:21.753Z,62.60
2018-02-21T07:53:49.282Z,66.03
2018-02-21T07:56:16.797Z,65.90
2018-02-21T07:58:44.441Z,69.17
2018-02-21T08:01:12.066Z,69.23
2018-02-21T08:03:40.469Z,69.87
2018-02-21T08:06:07.986Z,67.83
2018-02-21T08:08:35.489Z,65.43
2018-02-21T08:11:03.785Z,67.07
2018-02-21T08:13:32.278Z,73.40
2018-02-21T08:16:00.568Z,73.17
2018-02-21T08:18:28.835Z,71.60
2018-02-21T08:20:56.349Z,70.77
2018-02-21T08:23:23.856Z,76.80
2018-02-21T08:25:51.387Z,72.53
2018-02-21T08:28:18.936Z,76.37
2018-02-21T08:30:46.421Z,80.60
2018-02-21T08:33:13.981Z,76.50
2018-02-21T08:35:42.274Z,77.33
2018-02-21T08:38:10.537Z,73.73
2018-02-21T08:40:38.106Z,76.63
2018-02-21T08:43:05.631Z,76.10
2018-02-21T08:45:33.181Z,74.70
2018-02-21T08:48:01.600Z,75.07
2018-02-21T08:50:29.141Z,75.20
2018-02-21T08:52:57.426Z,78.10
2018-02-21T08:55:25.693Z,79.20
2018-02-21T08:57:54.755Z,70.97
2018-02-21T09:00:22.299Z,75.80
2018-02-21T09:02:50.581Z,73.40
2018-02-21T09:05:18.846Z,74.43
2018-02-21T09:07:47.129Z,75.77
2018-02-21T09:10:14.629Z,72.00
2018-02-21T09:12:43.021Z,71.43
2018-02-21T09:15:11.278Z,70.17
2018-02-21T09:17:38.782Z,74.97
2018-02-21T09:20:07.062Z,71.63
2018-02-21T09:22:34.641Z,74.10
2018-02-21T09:25:02.981Z,71.80
2018-02-21T09:27:30.499Z,71.27
2018-02-21T09:29:58.033Z,70.03
2018-02-21T09:32:25.529Z,72.43
2018-02-21T09:34:53.061Z,72.17
2018-02-21T09:37:20.618Z,70.30
2018-02-21T09:39:48.154Z,70.33
2018-02-21T09:42:16.457Z,69.10
2018-02-21T09:44:44.750Z,71.10
2018-02-21T09:47:12.253Z,71.60
2018-02-21T09:49:39.765Z,69.60
2018-02-21T09:52:07.267Z,68.40
2018-02-21T09:54:34.817Z,68.50
2018-02-21T09:57:03.082Z,72.30
2018-02-21T09:59:30.581Z,71.70
2018-02-21T10:01:58.860Z,73.07
2018-02-21T10:04:26.380Z,69.03
2018-02-21T10:06:53.914Z,72.40
2018-02-21T10:09:22.180Z,73.90
2018-02-21T10:11:50.050Z,69.67
2018-02-21T10:14:17.558Z,67.50
2018-02-21T10:16:45.842Z,70.43
2018-02-21T10:19:14.106Z,66.83
2018-02-21T10:21:41.643Z,66.47
2018-02-21T10:24:09.195Z,64.47
2018-02-21T10:26:36.727Z,65.33
2018-02-21T10:29:04.226Z,62.80
2018-02-21T10:31:31.730Z,60.67
2018-02-21T10:33:59.246Z,68.80
2018-02-21T10:36:26.741Z,61.57
2018-02-21T10:38:54.254Z,59.00
2018-02-21T10:41:21.777Z,59.33
2018-02-21T10:43:49.344Z,57.03
2018-02-21T10:46:17.609Z,55.80
2018-02-21T10:48:45.931Z,52.27
2018-02-21T10:51:13.425Z,44.73
2018-02-21T10:53:40.935Z,50.13
2018-02-21T10:56:08.434Z,51.00
2018-02-21T10:58:36.724Z,46.80
2018-02-21T11:01:10.690Z,45.40
2018-02-21T11:03:38.222Z,44.90
2018-02-21T11:06:06.493Z,40.67
2018-02-21T11:08:34.191Z,41.17
2018-02-21T11:11:01.758Z,41.73
2018-02-21T11:13:30.054Z,39.90
2018-02-21T11:15:57.548Z,41.90
2018-02-21T11:18:25.042Z,38.50
2018-02-21T11:20:52.570Z,39.90
2018-02-21T11:23:20.066Z,39.33
2018-02-21T11:25:47.598Z,37.03
2018-02-21T11:28:15.869Z,37.20
2018-02-21T11:30:43.487Z,39.60
2018-02-21T11:33:10.990Z,40.47
2018-02-21T11:35:38.520Z,40.80
2018-02-21T11:38:06.085Z,39.17
2018-02-21T11:40:33.605Z,38.23
2018-02-21T11:43:01.102Z,38.70
2018-02-21T11:45:28.706Z,36.10
2018-02-21T11:47:56.217Z,39.30
2018-02-21T11:50:23.834Z,40.80
2018-02-21T11:52:52.106Z,35.47
2018-02-21T11:55:20.412Z,40.53
2018-02-21T11:57:48.677Z,38.20
2018-02-21T12:00:16.202Z,38.03
2018-02-21T12:02:43.740Z,37.93
2018-02-21T12:05:12.020Z,38.70
2018-02-21T12:07:40.310Z,37.60
2018-02-21T12:10:08.574Z,35.90
2018-02-21T12:12:36.185Z,37.43
2018-02-21T12:15:04.457Z,39.47
2018-02-21T12:17:31.972Z,37.40
2018-02-21T12:19:59.474Z,34.83
2018-02-21T12:22:26.989Z,34.33
2018-02-21T12:24:55.259Z,36.60
2018-02-21T12:27:22.848Z,33.97
2018-02-21T12:29:51.113Z,36.70
2018-02-21T12:35:23.680Z,33.73
2018-02-21T12:37:51.194Z,32.53
2018-02-21T12:40:24.337Z,35.10
2018-02-21T12:42:52.625Z,34.60
2018-02-21T12:45:20.894Z,31.23
2018-02-21T12:47:49.162Z,32.40
2018-02-21T12:50:16.739Z,32.70
2018-02-21T12:52:44.249Z,34.10
2018-02-21T12:55:12.535Z,33.47
2018-02-21T12:57:40.803Z,34.23
2018-02-21T13:00:08.334Z,33.10
2018-02-21T13:02:35.838Z,32.20
2018-02-21T13:05:03.357Z,32.00
2018-02-21T13:07:30.863Z,31.97
2018-02-21T13:09:58.382Z,30.40
2018-02-21T13:12:26.645Z,29.27
2018-02-21T13:14:54.233Z,28.70
2018-02-21T13:17:22.530Z,28.70
2018-02-21T13:19:50.801Z,31.23
2018-02-21T13:22:18.318Z,28.30
2018-02-21T13:24:45.871Z,29.53
2018-02-21T13:27:13.390Z,26.50
2018-02-21T13:29:40.895Z,29.97
2018-02-21T13:32:09.184Z,29.03
2018-02-21T13:34:37.473Z,29.50
2018-02-21T13:37:05.779Z,29.57
2018-02-21T13:39:34.043Z,30.43
2018-02-21T13:42:02.337Z,29.73
2018-02-21T13:44:30.639Z,31.90
2018-02-21T13:46:58.211Z,29.70
2018-02-21T13:49:25.722Z,29.20
2018-02-21T13:51:53.349Z,29.40
2018-02-21T13:54:21.661Z,28.20
2018-02-21T13:56:49.190Z,24.73
2018-02-21T13:59:16.693Z,29.00
2018-02-21T14:01:44.186Z,26.03
2018-02-21T14:04:11.697Z,23.90
2018-02-21T14:06:39.198Z,23.53
2018-02-21T14:09:07.490Z,24.07
2018-02-21T14:11:34.990Z,24.90
2018-02-21T14:14:02.517Z,22.87
2018-02-21T14:16:30.786Z,26.17
2018-02-21T14:18:58.388Z,24.93
2018-02-21T14:21:26.689Z,24.07
2018-02-21T14:23:54.209Z,22.73
2018-02-21T14:26:21.707Z,23.70
2018-02-21T14:28:49.229Z,22.10
2018-02-21T14:31:16.767Z,23.03
2018-02-21T14:33:45.153Z,23.90
2018-02-21T14:36:13.448Z,23.77
2018-02-21T14:38:41.714Z,24.63
2018-02-21T14:41:09.230Z,21.87
2018-02-21T14:43:36.773Z,22.20
2018-02-21T14:46:05.065Z,22.00
2018-02-21T14:48:32.566Z,23.30
2018-02-21T14:51:00.090Z,24.07
2018-02-21T14:53:28.393Z,21.63
2018-02-21T14:55:56.699Z,24.00
2018-02-21T14:58:24.212Z,23.90
2018-02-21T15:00:51.730Z,22.43
2018-02-21T15:03:20.025Z,21.07
2018-02-21T15:05:47.553Z,20.60
2018-02-21T15:08:15.168Z,21.47
2018-02-21T15:10:43.467Z,19.87
2018-02-21T15:13:11.022Z,20.40
2018-02-21T15:15:39.317Z,20.37
2018-02-21T15:18:06.837Z,21.73
2018-02-21T15:20:34.353Z,21.03
2018-02-21T15:23:02.642Z,21.90
2018-02-21T15:25:30.929Z,22.70
2018-02-21T15:27:59.221Z,23.50
2018-02-21T15:30:27.514Z,23.67
2018-02-21T15:32:55.905Z,22.60
2018-02-21T15:35:23.478Z,23.60
2018-02-21T15:37:51.058Z,21.50
2018-02-21T15:40:18.565Z,23.90
2018-02-21T15:42:46.089Z,22.37
2018-02-21T15:45:14.384Z,23.57
2018-02-21T15:47:42.669Z,23.17
2018-02-21T15:50:10.933Z,23.63
2018-02-21T15:52:38.429Z,23.50
2018-02-21T15:55:06.714Z,23.07
2018-02-21T15:57:34.986Z,22.87
2018-02-21T16:00:02.519Z,24.30
2018-02-21T16:02:30.047Z,23.60
2018-02-21T16:04:58.329Z,26.50
2018-02-21T16:07:26.597Z,23.60
2018-02-21T16:09:54.202Z,20.80
2018-02-21T16:12:21.770Z,23.00
2018-02-21T16:14:50.130Z,22.77
2018-02-21T16:17:17.752Z,24.87
2018-02-21T16:19:45.269Z,23.30
2018-02-21T16:22:12.898Z,20.97
2018-02-21T16:24:40.425Z,24.57
2018-02-21T16:27:08.055Z,24.10
2018-02-21T16:29:35.557Z,24.60
2018-02-21T16:32:03.089Z,26.50
2018-02-21T16:34:30.626Z,28.03
2018-02-21T16:36:58.933Z,27.83
2018-02-21T16:39:26.445Z,30.17
2018-02-21T16:41:53.962Z,27.40
2018-02-21T16:44:22.230Z,29.20
2018-02-21T16:46:49.771Z,27.83
2018-02-21T16:49:17.265Z,29.87
2018-02-21T16:51:44.786Z,27.63
2018-02-21T16:54:16.302Z,31.03
2018-02-21T16:56:43.819Z,29.17
2018-02-21T16:59:11.326Z,27.30
2018-02-21T17:01:38.886Z,29.43
2018-02-21T17:04:06.434Z,27.80
2018-02-21T17:06:33.969Z,26.80
2018-02-21T17:09:01.575Z,28.67
2018-02-21T17:11:29.115Z,27.37
2018-02-21T17:13:56.622Z,28.23
2018-02-21T17:16:24.140Z,28.30
2018-02-21T17:18:51.752Z,30.40
2018-02-21T17:21:20.058Z,25.03
2018-02-21T17:23:47.585Z,27.70
2018-02-21T17:26:15.102Z,30.48
2018-02-21T17:28:42.621Z,28.47
2018-02-21T17:31:10.118Z,29.00
2018-02-21T17:33:38.409Z,27.53
2018-02-21T17:36:06.722Z,29.00
2018-02-21T17:38:34.252Z,29.17
2018-02-21T17:41:07.453Z,30.50
2018-02-21T17:43:34.982Z,28.27
2018-02-21T17:46:02.491Z,31.70
2018-02-21T17:48:30.037Z,28.67
2018-02-21T17:50:57.566Z,29.30
2018-02-21T17:53:25.856Z,29.10
2018-02-21T17:55:54.140Z,29.47
2018-02-21T17:58:22.486Z,30.47
2018-02-21T18:00:50.017Z,31.07
2018-02-21T18:03:18.298Z,29.43
2018-02-21T18:05:46.638Z,29.10
2018-02-21T18:08:14.137Z,29.52
2018-02-21T18:10:41.745Z,28.80
2018-02-21T18:13:09.247Z,29.73
2018-02-21T18:15:36.765Z,29.30
2018-02-21T18:18:05.038Z,30.47
2018-02-21T18:20:32.565Z,29.97
2018-02-21T18:23:00.069Z,28.92
2018-02-21T18:25:27.595Z,31.30
2018-02-21T18:27:55.103Z,30.13
2018-02-21T18:30:22.648Z,30.62
2018-02-21T18:32:50.190Z,28.25
2018-02-21T18:35:17.697Z,30.73
2018-02-21T18:37:45.226Z,30.73
2018-02-21T18:40:13.507Z,29.12
2018-02-21T18:42:41.029Z,29.60
2018-02-21T18:45:08.534Z,28.38
2018-02-21T18:47:36.062Z,29.95
2018-02-21T18:50:03.571Z,29.23
2018-02-21T18:52:31.094Z,29.50
2018-02-21T18:54:58.599Z,26.92
2018-02-21T18:57:26.142Z,27.85
2018-02-21T18:59:53.649Z,28.48
2018-02-21T19:02:21.179Z,26.35
2018-02-21T19:04:48.682Z,27.15
2018-02-21T19:07:16.303Z,26.40
2018-02-21T19:09:43.774Z,27.80
2018-02-21T19:12:12.046Z,27.90
2018-02-21T19:14:40.346Z,26.85
2018-02-21T19:17:08.741Z,27.37
2018-02-21T19:19:37.078Z,29.63
2018-02-21T19:22:04.605Z,28.13
2018-02-21T19:24:32.889Z,26.73
2018-02-21T19:27:01.159Z,26.87
2018-02-21T19:29:28.686Z,27.85
2018-02-21T19:31:56.190Z,29.52
2018-02-21T19:34:23.713Z,26.62
2018-02-21T19:36:51.221Z,27.45
2018-02-21T19:39:18.737Z,28.27
2018-02-21T19:41:47.007Z,28.20
2018-02-21T19:44:15.302Z,29.20
2018-02-21T19:46:43.586Z,28.62
2018-02-21T19:49:11.191Z,27.80
2018-02-21T19:51:38.713Z,26.08
2018-02-21T19:54:06.220Z,27.30
2018-02-21T19:56:34.514Z,30.88
2018-02-21T19:59:02.021Z,29.08
2018-02-21T20:01:29.571Z,29.98
2018-02-21T20:03:57.090Z,29.40
2018-02-21T20:06:25.537Z,29.35
2018-02-21T20:08:53.106Z,27.02
2018-02-21T20:11:20.635Z,27.73
2018-02-21T20:13:48.139Z,28.38
2018-02-21T20:16:15.666Z,28.75
2018-02-21T20:18:43.181Z,28.40
2018-02-21T20:21:10.706Z,28.17
2018-02-21T20:23:38.209Z,35.70
2018-02-21T20:26:06.481Z,26.65
2018-02-21T20:28:34.022Z,30.30
2018-02-21T20:31:01.553Z,26.73
2018-02-21T20:33:29.849Z,28.23
2018-02-21T20:35:57.363Z,27.67
2018-02-21T20:38:25.012Z,28.92
2018-02-21T20:40:52.514Z,27.67
2018-02-21T20:43:20.054Z,28.45
2018-02-21T20:45:47.561Z,27.62
2018-02-21T20:48:15.175Z,29.75
2018-02-21T20:50:42.761Z,27.15
2018-02-21T20:53:10.285Z,28.98
2018-02-21T20:55:37.885Z,28.30
2018-02-21T20:58:06.177Z,29.52
2018-02-21T21:00:33.713Z,28.62
2018-02-21T21:03:01.249Z,29.27
2018-02-21T21:05:28.766Z,29.08
2018-02-21T21:07:57.098Z,27.87
2018-02-21T21:10:24.629Z,28.20
2018-02-21T21:12:52.946Z,29.35
2018-02-21T21:15:20.485Z,27.52
2018-02-21T21:17:48.006Z,32.70
2018-02-21T21:20:15.538Z,31.30
2018-02-21T21:22:43.809Z,31.87
2018-02-21T21:25:11.352Z,37.15
2018-02-21T21:27:38.879Z,35.60
2018-02-21T21:30:07.173Z,31.12
2018-02-21T21:32:35.458Z,30.85
2018-02-21T21:35:03.744Z,30.35
2018-02-21T21:37:32.031Z,29.75
2018-02-21T21:40:00.320Z,27.25
2018-02-21T21:42:28.589Z,27.00
2018-02-21T21:44:56.117Z,27.05
2018-02-21T21:47:23.625Z,26.80
2018-02-21T21:49:51.210Z,28.38
2018-02-21T21:52:18.714Z,27.52
2018-02-21T21:54:46.225Z,27.17
2018-02-21T21:57:13.765Z,27.23
2018-02-21T21:59:41.325Z,27.37
2018-02-21T22:02:09.629Z,26.42
2018-02-21T22:04:37.133Z,27.52
2018-02-21T22:07:04.653Z,30.02
2018-02-21T22:09:32.917Z,26.75
2018-02-21T22:12:00.445Z,27.60
2018-02-21T22:14:27.957Z,27.37
2018-02-21T22:16:55.485Z,31.20
2018-02-21T22:19:22.995Z,33.15
2018-02-21T22:21:50.520Z,31.87
2018-02-21T22:24:18.079Z,31.48
2018-02-21T22:26:45.605Z,34.55
2018-02-21T22:29:13.128Z,35.40
2018-02-21T22:31:40.685Z,33.70
2018-02-21T22:34:08.218Z,36.00
2018-02-21T22:36:35.726Z,33.90
2018-02-21T22:39:04.018Z,36.42
2018-02-21T22:41:32.294Z,36.15
2018-02-21T22:44:00.593Z,37.47
2018-02-21T22:46:28.861Z,35.10
2018-02-21T22:48:56.453Z,40.63
2018-02-21T22:51:24.747Z,35.42
2018-02-21T22:53:52.282Z,38.92
2018-02-21T22:56:19.898Z,37.63
2018-02-21T22:58:47.417Z,37.30
2018-02-21T23:01:14.928Z,37.50
2018-02-21T23:03:43.212Z,32.28
2018-02-21T23:06:11.485Z,29.58
2018-02-21T23:08:39.093Z,34.50
2018-02-21T23:11:06.605Z,36.40
2018-02-21T23:13:34.141Z,41.85
2018-02-21T23:16:01.650Z,34.65
2018-02-21T23:18:29.155Z,37.53
2018-02-21T23:20:57.454Z,39.78
2018-02-21T23:23:26.254Z,39.30
2018-02-21T23:25:54.545Z,41.75
2018-02-21T23:28:22.956Z,38.42
2018-02-21T23:30:50.477Z,39.22
2018-02-21T23:33:18.082Z,37.92
2018-02-21T23:35:46.371Z,39.40
2018-02-21T23:38:14.647Z,38.95
2018-02-21T23:40:42.939Z,37.58
2018-02-21T23:43:11.213Z,37.20
2018-02-21T23:45:38.741Z,37.97
2018-02-21T23:48:06.245Z,39.40
2018-02-21T23:50:33.781Z,38.03
2018-02-21T23:53:01.286Z,37.38
2018-02-21T23:55:28.802Z,38.53
2018-02-21T23:57:56.365Z,38.72
